Time;durP1;ratioP1;P1;durP2;ratioP2;P2;SDS_P1;SDS_P2;PMS_P1;PMS_P2;Temp;Humidity;BMP_temperature;BMP_pressure;BME280_temperature;BME280_humidity;BME280_pressure;Samples;Min_cycle;Max_cycle;Signal;HPM_P1;HPM_P2
2023/02/16 00:00:31;;;;;;;39.95;24.35;;;;;;;2.90;100.00;101791.81;4905831;29;20530;-79
2023/02/16 00:03:15;;;;;;;41.13;24.10;;;;;;;2.73;100.00;101766.84;4920490;29;20048;-79
2023/02/16 00:06:20;;;;;;;39.28;24.17;;;;;;;2.62;100.00;101766.56;4913184;29;20428;-79
2023/02/16 00:09:24;;;;;;;44.75;25.65;;;;;;;2.65;100.00;101787.91;4919751;29;20053;-79
2023/02/16 00:22:28;;;;;;;47.55;25.77;;;;;;;2.30;100.00;101768.16;4882896;29;20060;-79
2023/02/16 00:25:32;;;;;;;;;;;;;;;;;;;;;
2023/02/16 00:31:44;;;;;;;46.20;25.88;;;;;;;2.24;100.00;101774.47;4857299;29;20132;-79
2023/02/16 00:34:25;;;;;;;42.05;24.85;;;;;;;2.25;100.00;101785.63;4863484;29;20132;-77
2023/02/16 00:36:52;;;;;;;42.08;25.48;;;;;;;2.30;100.00;101800.00;4908062;29;20163;-78
2023/02/16 00:39:18;;;;;;;42.65;26.02;;;;;;;2.28;100.00;101801.81;4918722;29;20139;-79
2023/02/16 00:41:50;;;;;;;44.47;26.15;;;;;;;2.22;100.00;101796.94;4917873;29;20487;-79
2023/02/16 00:44:20;;;;;;;47.05;26.30;;;;;;;2.17;100.00;101795.50;4913091;29;20523;-78
2023/02/16 00:46:47;;;;;;;44.53;27.15;;;;;;;2.23;100.00;101793.44;4913347;29;20048;-79
2023/02/16 00:49:14;;;;;;;45.97;28.08;;;;;;;2.18;100.00;101795.41;4917868;29;20104;-79
2023/02/16 00:51:41;;;;;;;48.67;27.85;;;;;;;2.16;100.00;101784.31;4909525;29;20056;-78
2023/02/16 00:54:08;;;;;;;45.72;27.02;;;;;;;2.14;100.00;101795.63;4918988;29;20099;-77
2023/02/16 00:56:35;;;;;;;47.55;26.38;;;;;;;2.08;100.00;101795.91;4912105;29;20063;-79
2023/02/16 00:59:07;;;;;;;51.10;27.10;;;;;;;2.09;100.00;101782.94;4919637;29;20072;-79
2023/02/16 01:01:36;;;;;;;48.47;27.50;;;;;;;1.99;100.00;101785.13;4912566;29;20091;-79
2023/02/16 01:04:06;;;;;;;48.33;27.23;;;;;;;1.98;100.00;101783.44;4918866;29;20511;-79
2023/02/16 01:12:08;;;;;;;52.03;27.45;;;;;;;1.90;100.00;101785.53;4904982;29;20063;-79
2023/02/16 01:14:36;;;;;;;51.10;27.02;;;;;;;1.89;100.00;101788.22;4912253;29;20150;-79
2023/02/16 01:17:04;;;;;;;53.25;28.02;;;;;;;1.96;100.00;101777.53;4907214;29;20081;-78
2023/02/16 01:19:30;;;;;;;49.17;27.67;;;;;;;1.90;100.00;101766.63;4907579;29;20140;-78
2023/02/16 01:21:57;;;;;;;52.88;28.48;;;;;;;1.92;100.00;101767.41;4919875;29;20083;-77
2023/02/16 01:24:24;;;;;;;52.60;27.83;;;;;;;1.85;100.00;101768.63;4914662;29;20084;-77
2023/02/16 01:26:51;;;;;;;51.05;27.15;;;;;;;1.84;100.00;101772.13;4919784;29;20087;-77
2023/02/16 01:29:20;;;;;;;53.25;28.70;;;;;;;1.78;100.00;101767.25;4920757;29;20129;-78
2023/02/16 01:31:48;;;;;;;52.97;29.25;;;;;;;1.76;100.00;101769.91;4913009;29;20055;-80
2023/02/16 01:34:15;;;;;;;49.92;28.83;;;;;;;1.82;100.00;101764.44;4919269;29;20079;-80
2023/02/16 01:36:44;;;;;;;53.00;28.38;;;;;;;1.80;100.00;101762.84;4918404;29;20063;-79
2023/02/16 01:39:13;;;;;;;48.10;27.92;;;;;;;1.74;100.00;101770.88;4918074;29;20108;-79
2023/02/16 01:42:03;;;;;;;52.50;27.08;;;;;;;1.70;100.00;101770.19;4919699;29;20103;-78
2023/02/16 01:44:37;;;;;;;53.88;28.75;;;;;;;1.66;100.00;101769.47;4918993;29;20087;-78
2023/02/16 01:47:15;;;;;;;55.45;28.52;;;;;;;1.59;100.00;101786.16;4910896;29;20088;-79
2023/02/16 01:49:41;;;;;;;49.97;28.33;;;;;;;1.47;100.00;101778.13;4915735;29;20132;-79
2023/02/16 01:52:19;;;;;;;51.72;28.58;;;;;;;1.45;100.00;101778.19;4914625;29;20118;-80
2023/02/16 01:54:53;;;;;;;52.78;28.25;;;;;;;1.43;100.00;101761.94;4919220;29;20154;-79
2023/02/16 01:57:26;;;;;;;52.65;28.13;;;;;;;1.44;100.00;101766.19;4918178;29;20281;-78
2023/02/16 02:00:05;;;;;;;52.67;28.67;;;;;;;1.45;100.00;101765.31;4917923;29;20111;-79
2023/02/16 02:02:36;;;;;;;55.65;28.85;;;;;;;1.46;100.00;101763.56;4915221;29;20061;-78
2023/02/16 02:07:58;;;;;;;53.53;30.25;;;;;;;1.42;100.00;101762.84;4915454;29;20188;-77
2023/02/16 02:10:31;;;;;;;57.47;29.60;;;;;;;1.32;100.00;101759.03;4908318;29;20139;-78
2023/02/16 02:13:03;;;;;;;;;;;;;;;1.32;100.00;101764.22;4917610;29;20155;-78
2023/02/16 02:15:31;;;;;;;54.38;28.30;;;;;;;1.26;100.00;101759.31;4912742;29;20300;-76
2023/02/16 02:17:59;;;;;;;52.00;28.58;;;;;;;1.17;100.00;101762.31;4917739;29;20400;-78
2023/02/16 02:23:43;;;;;;;56.83;29.42;;;;;;;1.07;100.00;101758.44;4916207;29;20059;-79
2023/02/16 02:26:51;;;;;;;54.40;29.90;;;;;;;1.07;100.00;101755.88;4917247;29;20137;-76
2023/02/16 02:29:33;;;;;;;56.78;29.02;;;;;;;1.02;100.00;101755.25;4907934;29;20071;-77
2023/02/16 02:32:12;;;;;;;51.35;27.30;;;;;;;1.16;100.00;101758.88;4912078;29;20398;-77
2023/02/16 02:34:48;;;;;;;55.13;28.17;;;;;;;1.14;100.00;101752.13;4913305;29;20051;-77
2023/02/16 02:37:26;;;;;;;55.92;29.33;;;;;;;1.10;100.00;101745.44;4918369;29;20341;-77
2023/02/16 02:40:03;;;;;;;53.22;27.52;;;;;;;1.03;100.00;101747.44;4917126;29;20133;-78
2023/02/16 02:42:36;;;;;;;49.33;28.08;;;;;;;0.94;100.00;101755.59;4916672;29;20051;-77
2023/02/16 02:45:07;;;;;;;51.55;28.58;;;;;;;0.91;100.00;101763.47;4906897;29;20147;-77
2023/02/16 02:47:38;;;;;;;54.03;29.30;;;;;;;0.84;100.00;101755.16;4910552;29;20075;-77
2023/02/16 02:50:37;;;;;;;59.25;29.42;;;;;;;0.87;100.00;101755.03;4909012;29;20131;-79
2023/02/16 02:53:06;;;;;;;53.95;29.95;;;;;;;0.90;100.00;101743.75;4906286;29;20084;-79
2023/02/16 03:01:11;;;;;;;57.28;29.17;;;;;;;1.04;100.00;101743.97;4899393;29;20101;-80
2023/02/16 03:03:42;;;;;;;59.88;30.92;;;;;;;0.98;100.00;101737.34;4915414;29;20080;-79
2023/02/16 03:06:14;;;;;;;60.08;31.58;;;;;;;0.99;100.00;101741.59;4916772;29;20114;-77
2023/02/16 03:08:45;;;;;;;55.83;30.20;;;;;;;0.93;100.00;101730.72;4918106;29;20055;-79
2023/02/16 03:14:04;;;;;;;52.75;30.77;;;;;;;0.91;100.00;101737.69;4913585;29;20082;-80
2023/02/16 03:16:34;;;;;;;56.90;31.00;;;;;;;0.96;100.00;101728.00;4912464;29;20056;-80
2023/02/16 03:30:10;;;;;;;55.17;30.20;;;;;;;0.83;100.00;101720.00;4906405;29;20088;-80
2023/02/16 03:32:37;;;;;;;59.50;31.55;;;;;;;0.79;100.00;101717.59;4913100;29;20490;-80
2023/02/16 03:35:05;;;;;;;53.88;32.13;;;;;;;0.79;100.00;101713.28;4919138;29;20579;-78
2023/02/16 03:37:32;;;;;;;62.60;33.45;;;;;;;0.83;100.00;101709.69;4918736;29;20514;-80
2023/02/16 03:42:49;;;;;;;54.78;30.88;;;;;;;0.78;100.00;101701.31;4917175;29;20204;-79
2023/02/16 03:45:17;;;;;;;56.63;30.70;;;;;;;0.71;100.00;101699.91;4903631;29;20080;-78
2023/02/16 03:47:44;;;;;;;57.80;31.90;;;;;;;0.69;100.00;101706.88;4899884;29;20105;-79
2023/02/16 03:50:10;;;;;;;57.28;32.03;;;;;;;0.67;100.00;101703.50;4912412;29;20087;-79
2023/02/16 03:52:37;;;;;;;58.70;31.92;;;;;;;0.69;100.00;101708.59;4914210;29;20131;-78
2023/02/16 03:55:04;;;;;;;56.85;30.88;;;;;;;0.71;100.00;101707.63;4914907;29;20091;-80
2023/02/16 03:57:30;;;;;;;59.53;32.10;;;;;;;0.68;100.00;101705.19;4912759;29;20112;-78
2023/02/16 03:59:57;;;;;;;57.75;31.60;;;;;;;0.65;100.00;101707.91;4911730;29;20048;-79
2023/02/16 04:02:27;;;;;;;62.28;31.77;;;;;;;0.62;100.00;101713.19;4913366;29;20060;-79
2023/02/16 04:04:54;;;;;;;59.08;32.38;;;;;;;0.67;100.00;101708.66;4908208;29;20065;-79
2023/02/16 04:07:20;;;;;;;57.30;32.13;;;;;;;0.64;100.00;101708.78;4907515;29;20055;-78
2023/02/16 04:09:47;;;;;;;60.45;32.05;;;;;;;0.60;100.00;101704.69;4912428;29;20480;-79
2023/02/16 04:14:58;;;;;;;54.78;31.20;;;;;;;0.64;100.00;101713.94;4913132;29;20488;-79
2023/02/16 04:17:26;;;;;;;61.80;31.80;;;;;;;0.58;100.00;101721.94;4911911;29;20095;-77
2023/02/16 04:19:53;;;;;;;62.97;33.75;;;;;;;0.61;100.00;101714.91;4920282;29;20530;-79
2023/02/16 04:22:19;;;;;;;58.42;33.22;;;;;;;0.58;100.00;101711.63;4915069;29;20154;-80
2023/02/16 04:24:46;;;;;;;64.22;33.80;;;;;;;0.56;100.00;101716.84;4911257;29;20131;-80
2023/02/16 04:27:12;;;;;;;59.78;32.33;;;;;;;0.53;100.00;101727.28;4920942;29;20479;-80
2023/02/16 04:29:39;;;;;;;59.40;33.10;;;;;;;0.54;100.00;101721.22;4921540;29;20483;-80
2023/02/16 04:32:06;;;;;;;61.78;33.20;;;;;;;0.52;100.00;101719.63;4916145;29;20051;-79
2023/02/16 04:34:34;;;;;;;67.90;33.97;;;;;;;0.51;100.00;101720.53;4904573;29;20064;-79
2023/02/16 04:37:01;;;;;;;59.25;33.20;;;;;;;0.51;100.00;101713.63;4911247;29;20222;-80
2023/02/16 04:39:27;;;;;;;61.08;32.92;;;;;;;0.51;100.00;101723.09;4921401;29;20052;-78
2023/02/16 04:41:54;;;;;;;59.88;33.35;;;;;;;0.52;100.00;101730.75;4918798;29;20105;-78
2023/02/16 04:44:21;;;;;;;60.38;32.95;;;;;;;0.50;100.00;101722.25;4913721;29;20054;-78
2023/02/16 04:46:47;;;;;;;60.50;33.25;;;;;;;0.52;100.00;101719.63;4912568;29;20367;-79
2023/02/16 04:49:14;;;;;;;63.28;33.00;;;;;;;0.50;100.00;101718.84;4914763;29;20070;-78
2023/02/16 04:51:42;;;;;;;63.25;32.92;;;;;;;0.51;100.00;101715.38;4910343;29;20130;-79
2023/02/16 04:54:08;;;;;;;64.68;34.25;;;;;;;0.60;100.00;101718.41;4912362;29;20052;-76
2023/02/16 04:56:36;;;;;;;63.17;32.60;;;;;;;0.62;100.00;101718.31;4914983;29;20117;-77
2023/02/16 04:59:03;;;;;;;57.00;32.42;;;;;;;0.51;100.00;101712.78;4899844;29;20059;-78
2023/02/16 05:01:30;;;;;;;62.30;32.97;;;;;;;0.54;100.00;101718.66;4906500;29;20136;-79
2023/02/16 05:03:56;;;;;;;67.45;33.65;;;;;;;0.52;100.00;101715.31;4915776;29;20485;-78
2023/02/16 05:06:23;;;;;;;68.68;33.60;;;;;;;0.49;100.00;101720.59;4908088;29;20164;-79
2023/02/16 05:08:51;;;;;;;62.72;33.13;;;;;;;0.44;100.00;101719.13;4909785;29;20052;-78
2023/02/16 05:16:47;;;;;;;65.53;34.67;;;;;;;0.37;100.00;101705.69;4906996;29;20052;-78
2023/02/16 05:19:13;;;;;;;73.05;37.60;;;;;;;0.38;100.00;101704.78;4920666;29;20056;-80
2023/02/16 05:21:40;;;;;;;67.05;34.58;;;;;;;0.42;100.00;101708.06;4920415;29;20083;-80
2023/02/16 05:24:10;;;;;;;66.40;36.22;;;;;;;0.45;100.00;101719.06;4919076;29;20131;-79
2023/02/16 05:26:39;;;;;;;63.85;35.67;;;;;;;0.49;100.00;101717.16;4918817;29;20056;-79
2023/02/16 05:29:06;;;;;;;67.57;34.28;;;;;;;0.47;100.00;101716.44;4914660;29;20048;-79
2023/02/16 05:31:32;;;;;;;67.45;35.42;;;;;;;0.47;100.00;101721.59;4912053;29;20056;-80
2023/02/16 05:33:59;;;;;;;69.15;35.60;;;;;;;0.50;100.00;101729.16;4916001;29;20080;-78
2023/02/16 05:36:26;;;;;;;71.78;35.13;;;;;;;0.45;100.00;101726.78;4933447;23;20080;-78
2023/02/16 05:38:52;;;;;;;65.20;35.00;;;;;;;0.46;100.00;101730.22;4943673;29;20536;-80
2023/02/16 05:41:23;;;;;;;68.57;35.03;;;;;;;0.43;100.00;101720.88;4943841;29;20099;-80
2023/02/16 05:43:51;;;;;;;70.35;36.20;;;;;;;0.44;100.00;101726.84;4942815;29;20098;-79
2023/02/16 05:46:18;;;;;;;68.00;36.38;;;;;;;0.46;100.00;101717.34;4944258;29;20115;-77
2023/02/16 05:48:44;;;;;;;68.72;35.28;;;;;;;0.33;100.00;101724.72;4961935;28;20047;-79
2023/02/16 05:51:11;;;;;;;67.00;36.50;;;;;;;0.35;100.00;101727.25;4962613;28;20043;-79
2023/02/16 05:53:38;;;;;;;68.80;34.90;;;;;;;0.42;100.00;101728.66;4962329;28;20095;-79
2023/02/16 05:56:05;;;;;;;70.13;37.05;;;;;;;0.43;100.00;101720.03;4960433;28;20047;-77
2023/02/16 05:58:33;;;;;;;69.22;34.80;;;;;;;0.36;100.00;101708.31;4961369;29;20102;-79
2023/02/16 06:01:00;;;;;;;66.18;35.25;;;;;;;0.38;100.00;101706.50;4961949;29;20086;-80
2023/02/16 06:03:26;;;;;;;69.35;36.45;;;;;;;0.48;100.00;101715.50;4963423;29;20047;-79
2023/02/16 06:05:54;;;;;;;77.55;35.60;;;;;;;0.48;100.00;101728.38;4964518;29;20047;-78
2023/02/16 06:08:21;;;;;;;73.75;37.05;;;;;;;0.45;100.00;101708.78;4969282;29;20501;-79
2023/02/16 06:10:49;;;;;;;67.20;36.28;;;;;;;0.47;100.00;101709.53;4966246;29;20569;-80
2023/02/16 06:13:17;;;;;;;67.97;34.90;;;;;;;0.56;100.00;101723.75;4964574;29;20055;-79
2023/02/16 06:15:45;;;;;;;65.72;35.58;;;;;;;0.61;100.00;101721.81;4963622;29;20074;-79
2023/02/16 06:18:12;;;;;;;68.45;35.35;;;;;;;0.68;100.00;101733.53;4963497;28;20055;-79
2023/02/16 06:20:40;;;;;;;64.18;35.78;;;;;;;0.68;100.00;101725.78;4965076;28;20135;-80
2023/02/16 06:23:09;;;;;;;63.30;34.40;;;;;;;0.64;100.00;101714.78;4965893;28;20054;-80
2023/02/16 06:25:36;;;;;;;72.22;34.95;;;;;;;0.70;100.00;101728.31;4966512;29;20157;-78
2023/02/16 06:28:03;;;;;;;67.75;33.88;;;;;;;0.68;100.00;101724.97;4966040;29;20070;-80
2023/02/16 06:30:30;;;;;;;67.78;34.28;;;;;;;0.69;100.00;101726.63;4966298;28;20082;-80
2023/02/16 06:32:58;;;;;;;65.10;35.88;;;;;;;0.61;100.00;101716.66;4966737;29;20040;-79
2023/02/16 06:35:25;;;;;;;65.10;33.70;;;;;;;0.66;100.00;101720.72;4966331;28;20082;-80
2023/02/16 06:37:51;;;;;;;61.42;34.30;;;;;;;0.75;100.00;101723.78;4967338;29;20079;-80
2023/02/16 06:40:18;;;;;;;58.78;33.40;;;;;;;0.71;100.00;101725.66;4968438;28;20078;-80
2023/02/16 06:42:45;;;;;;;66.20;34.00;;;;;;;0.73;100.00;101723.88;4969300;28;20064;-80
2023/02/16 06:45:12;;;;;;;64.68;33.63;;;;;;;0.74;100.00;101722.97;4973814;28;20082;-80
2023/02/16 06:47:39;;;;;;;59.97;33.85;;;;;;;0.81;100.00;101739.84;4969800;29;20047;-80
2023/02/16 06:50:12;;;;;;;57.83;32.35;;;;;;;0.88;100.00;101727.53;4969795;29;20103;-78
2023/02/16 06:52:39;;;;;;;63.67;33.05;;;;;;;0.88;100.00;101722.38;4969055;29;20114;-79
2023/02/16 06:55:06;;;;;;;59.90;33.85;;;;;;;0.95;100.00;101719.44;4977670;28;20083;-78
2023/02/16 06:57:32;;;;;;;65.30;33.30;;;;;;;1.00;100.00;101732.09;4969350;29;20050;-77
2023/02/16 06:59:59;;;;;;;54.90;30.17;;;;;;;1.06;100.00;101733.59;4969385;29;20502;-77
2023/02/16 07:02:26;;;;;;;64.38;32.97;;;;;;;1.18;100.00;101751.09;4965791;29;20054;-77
2023/02/16 07:04:53;;;;;;;59.00;32.28;;;;;;;1.26;100.00;101741.28;4970257;29;20102;-79
2023/02/16 07:07:21;;;;;;;55.45;32.30;;;;;;;1.24;100.00;101743.09;4972842;29;20054;-79
2023/02/16 07:09:48;;;;;;;54.40;31.08;;;;;;;1.22;100.00;101721.69;4974071;29;20062;-78
2023/02/16 07:12:14;;;;;;;58.70;32.35;;;;;;;1.28;100.00;101711.09;4974754;28;20035;-76
2023/02/16 07:14:41;;;;;;;60.05;32.60;;;;;;;1.35;100.00;101732.28;4975590;29;20062;-79
2023/02/16 07:17:07;;;;;;;57.25;31.77;;;;;;;1.60;100.00;101737.97;4973188;28;20066;-79
2023/02/16 07:19:34;;;;;;;60.22;32.45;;;;;;;1.90;100.00;101740.84;4972581;29;20027;-78
2023/02/16 07:22:02;;;;;;;57.10;31.85;;;;;;;1.87;100.00;101739.25;4965855;29;20039;-77
2023/02/16 07:24:30;;;;;;;54.00;29.85;;;;;;;1.65;100.00;101721.38;4966726;29;20074;-78
2023/02/16 07:26:56;;;;;;;51.28;31.48;;;;;;;1.69;100.00;101741.88;4964052;28;20091;-79
2023/02/16 07:29:23;;;;;;;52.85;30.20;;;;;;;1.67;100.00;101741.94;4960667;29;20139;-80
2023/02/16 07:31:50;;;;;;;54.72;31.45;;;;;;;1.67;100.00;101727.28;4960767;29;20027;-79
2023/02/16 07:34:17;;;;;;;53.65;31.15;;;;;;;1.64;100.00;101737.75;4961440;29;20047;-79
2023/02/16 07:36:44;;;;;;;57.60;32.90;;;;;;;1.61;100.00;101732.75;4959799;29;20090;-80
2023/02/16 07:39:11;;;;;;;53.22;30.90;;;;;;;1.56;100.00;101719.22;4959853;29;20127;-80
2023/02/16 07:41:39;;;;;;;55.05;32.67;;;;;;;1.60;100.00;101732.81;4961896;29;20055;-79
2023/02/16 07:44:06;;;;;;;55.95;31.08;;;;;;;1.61;100.00;101727.56;4962278;29;20488;-79
2023/02/16 07:46:33;;;;;;;58.42;31.83;;;;;;;1.71;100.00;101732.31;4958079;28;20130;-78
2023/02/16 07:48:59;;;;;;;55.03;30.52;;;;;;;1.76;100.00;101736.34;4960629;29;20077;-80
2023/02/16 07:51:29;;;;;;;57.70;32.15;;;;;;;1.82;100.00;101737.81;4956400;28;20139;-78
2023/02/16 07:53:56;;;;;;;56.38;32.53;;;;;;;1.88;100.00;101733.19;4967576;28;20422;-79
2023/02/16 07:56:25;;;;;;;62.15;31.45;;;;;;;1.98;100.00;101741.31;4960201;29;20119;-78
2023/02/16 07:58:53;;;;;;;57.20;32.97;;;;;;;2.02;100.00;101729.09;4966082;29;20145;-79
2023/02/16 08:01:20;;;;;;;54.58;31.88;;;;;;;2.00;100.00;101736.91;4965542;29;20424;-80
2023/02/16 08:03:47;;;;;;;50.65;30.70;;;;;;;2.04;100.00;101730.69;4966846;29;20071;-80
2023/02/16 08:06:32;;;;;;;55.08;30.15;;;;;;;2.09;100.00;101728.72;4969361;29;20048;-78
2023/02/16 08:08:58;;;;;;;52.58;31.13;;;;;;;2.12;100.00;101726.00;4964484;29;20051;-80
2023/02/16 08:11:25;;;;;;;58.10;30.20;;;;;;;2.22;100.00;101727.22;4963396;28;20067;-79
2023/02/16 08:13:53;;;;;;;56.78;30.92;;;;;;;2.27;100.00;101727.81;4966720;29;20087;-79
2023/02/16 08:16:22;;;;;;;53.78;30.63;;;;;;;2.34;100.00;101736.09;4965515;29;20493;-81
2023/02/16 08:18:59;;;;;;;51.70;30.67;;;;;;;2.36;100.00;101733.44;4973536;28;20055;-82
2023/02/16 08:21:28;;;;;;;57.17;30.27;;;;;;;2.46;100.00;101740.63;4964733;29;20421;-79
2023/02/16 08:23:58;;;;;;;50.33;30.27;;;;;;;2.52;100.00;101745.50;4976768;28;20178;-79
2023/02/16 08:26:27;;;;;;;54.97;29.75;;;;;;;2.42;100.00;101727.94;4970189;28;20055;-80
2023/02/16 08:28:58;;;;;;;49.97;29.92;;;;;;;2.53;100.00;101736.84;4974986;28;20054;-78
2023/02/16 08:31:27;;;;;;;54.60;31.00;;;;;;;2.49;100.00;101726.72;4977339;28;20047;-80
2023/02/16 08:33:58;;;;;;;50.50;30.02;;;;;;;2.58;100.00;101739.19;4967469;29;20142;-79
2023/02/16 08:36:28;;;;;;;55.75;30.70;;;;;;;2.65;100.00;101719.88;4972809;28;20106;-80
2023/02/16 08:38:55;;;;;;;57.70;31.05;;;;;;;2.81;100.00;101730.28;4967372;28;20075;-78
2023/02/16 08:41:23;;;;;;;48.55;29.13;;;;;;;2.92;100.00;101727.94;4966261;29;20101;-79
2023/02/16 08:43:51;;;;;;;49.38;29.40;;;;;;;3.09;100.00;101734.81;4965282;29;20462;-80
2023/02/16 08:46:19;;;;;;;53.65;29.75;;;;;;;3.13;100.00;101726.00;4965013;29;20115;-77
2023/02/16 08:48:46;;;;;;;51.63;30.10;;;;;;;3.16;100.00;101720.66;4974689;28;20162;-80
2023/02/16 08:51:14;;;;;;;53.22;30.25;;;;;;;3.31;100.00;101727.56;4979684;28;20078;-80
2023/02/16 08:53:41;;;;;;;48.50;30.33;;;;;;;3.61;100.00;101741.44;4971836;28;20055;-79
2023/02/16 08:56:09;;;;;;;54.72;31.52;;;;;;;3.65;100.00;101737.78;4968574;29;20082;-78
2023/02/16 08:58:37;;;;;;;55.15;30.85;;;;;;;3.79;100.00;101743.91;4968431;29;20051;-77
2023/02/16 09:01:04;;;;;;;44.85;28.67;;;;;;;3.95;100.00;101736.97;4967500;29;20078;-79
2023/02/16 09:03:32;;;;;;;48.85;28.95;;;;;;;4.03;100.00;101745.16;4963760;28;20055;-80
2023/02/16 09:06:02;;;;;;;48.85;28.30;;;;;;;4.00;100.00;101750.50;4966191;29;20089;-80
2023/02/16 09:08:28;;;;;;;50.25;29.33;;;;;;;3.88;100.00;101744.25;4965028;29;20062;-80
2023/02/16 09:10:55;;;;;;;47.53;29.02;;;;;;;3.86;99.60;101743.50;4972780;28;20067;-80
2023/02/16 09:13:22;;;;;;;48.97;30.23;;;;;;;3.99;100.00;101744.47;4973953;28;20106;-79
2023/02/16 09:15:49;;;;;;;50.88;30.40;;;;;;;4.15;99.42;101738.44;4965474;29;20122;-79
2023/02/16 09:18:16;;;;;;;55.55;31.67;;;;;;;4.25;99.25;101739.59;4971925;28;20055;-80
2023/02/16 09:20:45;;;;;;;54.10;31.27;;;;;;;4.44;98.53;101734.16;4968066;28;20051;-78
2023/02/16 09:23:12;;;;;;;48.65;29.58;;;;;;;4.75;98.08;101741.78;4973689;28;20078;-80
2023/02/16 09:25:40;;;;;;;48.20;29.73;;;;;;;4.86;96.55;101743.72;4974524;28;20485;-79
2023/02/16 09:28:08;;;;;;;54.63;31.10;;;;;;;4.91;95.88;101737.34;4972613;28;20056;-79
2023/02/16 09:30:38;;;;;;;49.53;30.48;;;;;;;4.94;95.15;101733.75;4966708;29;20051;-80
2023/02/16 09:33:04;;;;;;;45.13;29.60;;;;;;;5.00;95.21;101733.38;4965127;28;20051;-79
2023/02/16 09:35:31;;;;;;;47.90;29.63;;;;;;;5.22;94.97;101727.69;4976147;28;20085;-79
2023/02/16 09:37:59;;;;;;;49.78;30.30;;;;;;;5.18;94.28;101734.00;4979440;28;20459;-79
2023/02/16 09:40:27;;;;;;;44.30;28.08;;;;;;;5.24;93.73;101733.59;4977622;28;20047;-81
2023/02/16 09:43:03;;;;;;;49.40;30.17;;;;;;;5.36;93.75;101735.44;4977234;28;20122;-79
2023/02/16 09:45:35;;;;;;;52.85;31.10;;;;;;;5.29;92.88;101735.00;4964345;29;20055;-81
2023/02/16 09:48:02;;;;;;;56.92;30.88;;;;;;;5.61;93.23;101743.38;4956527;28;20062;-77
2023/02/16 09:50:33;;;;;;;44.60;29.05;;;;;;;5.78;92.56;101752.69;4974544;28;20079;-78
2023/02/16 09:53:07;;;;;;;48.53;29.23;;;;;;;5.75;91.79;101746.84;4967211;28;20047;-78
2023/02/16 09:55:47;;;;;;;47.45;30.70;;;;;;;5.78;92.05;101750.09;4966234;29;20063;-79
2023/02/16 09:58:20;;;;;;;51.78;30.90;;;;;;;5.98;91.76;101759.25;4966823;28;20047;-80
2023/02/16 10:00:51;;;;;;;47.95;29.73;;;;;;;5.89;91.16;101762.41;4958963;28;20047;-79
2023/02/16 10:03:32;;;;;;;46.83;29.90;;;;;;;6.02;90.93;101762.47;4977286;28;20061;-81
2023/02/16 10:06:16;;;;;;;45.58;28.60;;;;;;;6.06;90.60;101767.38;4966727;28;20057;-80
2023/02/16 10:08:49;;;;;;;50.45;32.13;;;;;;;6.05;90.11;101768.31;4974346;28;20054;-79
2023/02/16 10:11:40;;;;;;;;;;;;;;;6.23;90.29;101769.69;4971747;28;20130;-80
2023/02/16 10:14:13;;;;;;;44.50;29.48;;;;;;;6.13;90.16;101768.66;4965163;29;19922;-79
2023/02/16 10:16:42;;;;;;;;;;;;;;;6.07;90.04;101769.03;4963224;28;20074;-80
2023/02/16 10:19:19;;;;;;;47.17;29.48;;;;;;;6.10;90.33;101763.66;4967533;28;19923;-79
2023/02/16 10:21:51;;;;;;;47.25;30.08;;;;;;;6.11;90.47;101772.28;4966488;29;20082;-81
2023/02/16 10:24:19;;;;;;;46.80;29.88;;;;;;;6.12;90.70;101769.59;4971951;28;20103;-79
2023/02/16 10:26:51;;;;;;;46.85;30.30;;;;;;;6.22;90.56;101767.19;4965400;28;20070;-80
2023/02/16 10:29:21;;;;;;;35.40;22.27;;;;;;;6.24;91.14;101781.75;4963669;29;20126;-79
2023/02/16 10:31:53;;;;;;;46.53;29.92;;;;;;;6.25;91.30;101770.44;4960396;29;20124;-77
2023/02/16 10:34:26;;;;;;;48.35;29.90;;;;;;;6.20;91.38;101761.25;4961578;29;20544;-78
2023/02/16 10:37:11;;;;;;;50.40;31.77;;;;;;;6.30;91.60;101770.97;4961940;29;20137;-79
2023/02/16 10:39:45;;;;;;;49.50;30.95;;;;;;;6.31;91.38;101762.22;4960494;29;20089;-80
2023/02/16 10:42:21;;;;;;;49.30;30.88;;;;;;;6.36;91.49;101766.28;4960211;29;20086;-76
2023/02/16 10:44:56;;;;;;;52.50;32.10;;;;;;;6.42;91.62;101764.13;4953740;29;20055;-77
2023/02/16 10:47:31;;;;;;;45.33;29.58;;;;;;;6.56;91.46;101769.25;4961116;29;20067;-78
2023/02/16 10:49:58;;;;;;;48.08;30.90;;;;;;;6.66;91.50;101765.06;4962720;29;20122;-79
2023/02/16 10:52:28;;;;;;;51.13;31.90;;;;;;;6.59;91.09;101771.66;4962549;29;20130;-79
2023/02/16 10:54:55;;;;;;;43.70;29.70;;;;;;;6.60;90.88;101764.69;4961502;29;20047;-78
2023/02/16 10:57:26;;;;;;;52.35;30.95;;;;;;;6.57;91.45;101762.28;4963231;29;20558;-79
2023/02/16 10:59:54;;;;;;;51.38;32.17;;;;;;;6.61;91.70;101759.38;4965617;28;20055;-79
2023/02/16 11:02:25;;;;;;;46.95;30.95;;;;;;;6.66;91.72;101761.63;4965307;28;20039;-80
2023/02/16 11:04:53;;;;;;;46.03;29.10;;;;;;;6.71;91.93;101749.16;4970879;28;20315;-79
2023/02/16 11:07:21;;;;;;;51.13;31.92;;;;;;;6.79;91.72;101751.25;4963935;29;20126;-81
2023/02/16 11:09:52;;;;;;;50.22;30.95;;;;;;;6.87;91.43;101748.97;4962348;28;20086;-80
2023/02/16 11:12:29;;;;;;;48.35;30.73;;;;;;;6.94;91.43;101745.00;4961511;28;20043;-79
2023/02/16 11:15:02;;;;;;;49.60;30.45;;;;;;;7.01;90.92;101740.22;4960024;29;20090;-78
2023/02/16 11:17:28;;;;;;;50.75;30.58;;;;;;;7.07;90.69;101739.78;4958719;29;20095;-77
2023/02/16 11:19:58;;;;;;;45.90;30.67;;;;;;;7.14;90.51;101731.44;4958199;28;20122;-78
2023/02/16 11:22:32;;;;;;;46.97;30.80;;;;;;;7.26;90.48;101716.72;4962610;28;20078;-78
2023/02/16 11:25:23;;;;;;;49.45;31.40;;;;;;;7.37;90.48;101722.00;4964900;28;20103;-77
2023/02/16 11:27:54;;;;;;;48.78;30.38;;;;;;;7.54;90.12;101719.06;4959078;28;20573;-78
2023/02/16 11:30:31;;;;;;;46.53;29.42;;;;;;;7.73;89.93;101722.91;4963719;28;20154;-78
2023/02/16 11:32:59;;;;;;;49.22;28.95;;;;;;;7.98;89.64;101730.63;4960080;28;20058;-79
2023/02/16 11:35:26;;;;;;;45.30;30.48;;;;;;;8.09;89.08;101709.78;4963884;28;20516;-78
2023/02/16 11:37:54;;;;;;;43.80;30.00;;;;;;;8.02;88.77;101705.16;4964085;28;20083;-78
2023/02/16 11:40:26;;;;;;;45.33;29.98;;;;;;;8.18;88.97;101708.28;4961684;28;20173;-77
2023/02/16 11:42:56;;;;;;;45.88;29.95;;;;;;;8.26;88.18;101704.16;4962557;28;20115;-78
2023/02/16 11:45:27;;;;;;;43.67;29.50;;;;;;;8.40;87.80;101703.16;4964576;28;20055;-78
2023/02/16 11:47:56;;;;;;;45.78;29.95;;;;;;;8.20;86.97;101695.97;4960641;28;20047;-77
2023/02/16 11:50:27;;;;;;;46.85;29.27;;;;;;;8.28;86.88;101697.06;4964545;28;20051;-79
2023/02/16 11:52:56;;;;;;;41.63;28.35;;;;;;;8.25;87.15;101694.69;4961467;29;20068;-79
2023/02/16 11:55:26;;;;;;;49.45;30.05;;;;;;;8.26;86.94;101688.50;4962536;28;20098;-77
2023/02/16 11:57:55;;;;;;;40.17;29.20;;;;;;;8.32;86.89;101682.88;4963169;28;20058;-80
2023/02/16 12:00:25;;;;;;;43.88;29.30;;;;;;;8.38;86.69;101676.38;4959800;29;20433;-77
2023/02/16 12:03:15;;;;;;;42.97;28.83;;;;;;;8.26;87.01;101665.03;4963022;28;20473;-80
2023/02/16 12:05:53;;;;;;;43.22;28.48;;;;;;;8.35;86.91;101667.94;4960026;29;20304;-81
2023/02/16 12:08:37;;;;;;;53.83;31.90;;;;;;;8.50;86.97;101667.63;4962938;29;20082;-78
2023/02/16 12:11:25;;;;;;;45.90;30.05;;;;;;;8.39;86.73;101661.53;4962891;28;20051;-80
2023/02/16 12:14:03;;;;;;;44.78;29.42;;;;;;;8.41;86.97;101672.69;4960052;28;20055;-80
2023/02/16 12:16:37;;;;;;;46.58;29.77;;;;;;;8.51;86.61;101673.63;4956274;28;20054;-81
2023/02/16 12:19:17;;;;;;;47.38;30.45;;;;;;;8.50;86.88;101658.97;4960845;29;20077;-80
2023/02/16 12:21:47;;;;;;;45.65;29.95;;;;;;;8.43;87.24;101660.38;4955376;28;20076;-80
2023/02/16 12:24:30;;;;;;;45.40;30.08;;;;;;;8.49;87.31;101665.13;4954961;28;20103;-81